Time;durP1;ratioP1;P1;durP2;ratioP2;P2;SDS_P1;SDS_P2;PMS_P1;PMS_P2;Temp;Humidity;BMP_temperature;BMP_pressure;BME280_temperature;BME280_humidity;BME280_pressure;Samples;Min_cycle;Max_cycle;Signal;HPM_P1;HPM_P2
2023/09/29 00:01:34;;;;;;;;;;;;;;;21.04;56.27;101440.47;4954573;28;20045;-67
2023/09/29 00:04:01;;;;;;;116.20;110.70;;;;;;;21.03;56.08;101449.81;4971558;28;19929;-67
2023/09/29 00:06:26;;;;;;;118.90;113.60;;;;;;;21.02;56.03;101448.19;4972153;28;20054;-67
2023/09/29 00:08:52;;;;;;;119.18;113.43;;;;;;;21.02;56.58;101439.16;4971893;28;20039;-67
2023/09/29 00:11:17;;;;;;;117.93;112.65;;;;;;;21.01;56.59;101448.47;4972422;28;20035;-66
2023/09/29 00:13:43;;;;;;;119.75;114.15;;;;;;;21.00;56.52;101449.59;4971771;28;20042;-66
2023/09/29 00:16:08;;;;;;;122.30;116.57;;;;;;;20.99;56.58;101451.53;4972361;28;20484;-66
2023/09/29 00:18:33;;;;;;;120.47;114.97;;;;;;;20.99;56.09;101446.06;4968593;28;20042;-67
2023/09/29 00:20:59;;;;;;;120.28;114.65;;;;;;;20.98;56.29;101441.66;4953765;28;20039;-67
2023/09/29 00:23:24;;;;;;;118.40;113.00;;;;;;;20.96;56.24;101443.88;4953367;28;20413;-66
2023/09/29 00:25:50;;;;;;;117.47;112.22;;;;;;;20.95;56.54;101445.00;4953730;28;20066;-67
2023/09/29 00:28:16;;;;;;;120.35;114.68;;;;;;;20.95;56.46;101442.25;4953466;28;20122;-66
2023/09/29 00:30:41;;;;;;;119.72;113.95;;;;;;;20.94;56.42;101443.34;4953991;28;20035;-66
2023/09/29 00:33:06;;;;;;;122.40;116.20;;;;;;;20.94;56.34;101435.94;4953295;28;20050;-67
2023/09/29 00:35:33;;;;;;;120.30;115.00;;;;;;;20.93;56.46;101437.03;4953697;28;20510;-67
2023/09/29 00:38:00;;;;;;;119.70;113.90;;;;;;;20.93;56.47;101431.53;4953659;28;20118;-66
2023/09/29 00:40:26;;;;;;;121.00;115.25;;;;;;;20.90;56.31;101426.66;4953159;28;20376;-66
2023/09/29 00:42:52;;;;;;;120.07;114.50;;;;;;;20.91;56.23;101438.44;4953780;28;20070;-66
2023/09/29 00:45:25;;;;;;;118.72;113.30;;;;;;;20.90;56.48;101432.16;4952848;28;20485;-66
2023/09/29 00:47:55;;;;;;;118.57;112.65;;;;;;;20.89;56.62;101427.78;4953817;28;20043;-67
2023/09/29 00:50:23;;;;;;;119.30;113.78;;;;;;;20.89;56.54;101429.69;4953435;28;20071;-67
2023/09/29 00:52:50;;;;;;;119.17;113.67;;;;;;;20.87;56.07;101424.50;4953841;28;20035;-67
2023/09/29 00:55:22;;;;;;;119.50;114.13;;;;;;;20.88;56.06;101419.81;4953289;28;20035;-69
2023/09/29 00:57:48;;;;;;;121.07;115.20;;;;;;;20.86;56.56;101413.81;4953283;28;20483;-66
2023/09/29 01:02:55;;;;;;;119.22;113.70;;;;;;;20.83;56.31;101404.22;4953437;28;20054;-66
2023/09/29 01:05:20;;;;;;;121.53;115.75;;;;;;;20.83;56.55;101400.69;4952506;28;20051;-66
2023/09/29 01:07:46;;;;;;;117.13;111.43;;;;;;;20.84;56.23;101405.88;4953755;28;20035;-67
2023/09/29 01:10:13;;;;;;;116.35;110.75;;;;;;;20.81;56.16;101400.16;4953084;28;20481;-66
2023/09/29 01:12:40;;;;;;;118.63;112.82;;;;;;;20.80;56.51;101393.84;4953212;28;20333;-66
2023/09/29 01:15:06;;;;;;;117.65;112.43;;;;;;;20.80;56.62;101395.78;4953318;28;20039;-66
2023/09/29 01:17:31;;;;;;;117.53;112.35;;;;;;;20.80;56.27;101390.28;4952878;28;20039;-66
2023/09/29 01:19:57;;;;;;;123.05;117.57;;;;;;;20.78;56.24;101387.81;4954592;28;20036;-66
2023/09/29 01:22:22;;;;;;;116.50;111.20;;;;;;;20.78;56.52;101384.28;4956687;28;20057;-66
2023/09/29 01:24:48;;;;;;;116.60;111.20;;;;;;;20.77;56.27;101388.94;4956977;28;20503;-67
2023/09/29 01:27:13;;;;;;;117.47;112.07;;;;;;;20.76;56.25;101365.34;4956680;28;20042;-67
2023/09/29 01:29:42;;;;;;;116.97;111.60;;;;;;;20.74;56.40;101362.91;4955385;28;20523;-66
2023/09/29 01:32:12;;;;;;;116.57;110.80;;;;;;;20.74;56.47;101368.41;4956850;28;20077;-67
2023/09/29 01:34:37;;;;;;;118.88;112.50;;;;;;;20.73;56.73;101355.75;4956614;28;20237;-66
2023/09/29 01:37:03;;;;;;;115.03;109.78;;;;;;;20.73;56.67;101369.50;4956691;28;20122;-66
2023/09/29 01:39:30;;;;;;;116.95;111.35;;;;;;;20.72;56.24;101367.06;4955127;28;20480;-66
2023/09/29 01:41:56;;;;;;;114.80;109.55;;;;;;;20.71;56.56;101363.50;4956259;28;20036;-68
2023/09/29 01:44:21;;;;;;;116.00;110.80;;;;;;;20.72;56.43;101369.81;4956345;28;20121;-66
2023/09/29 01:46:49;;;;;;;118.82;113.20;;;;;;;20.71;56.08;101365.41;4956566;28;20070;-67
2023/09/29 01:49:15;;;;;;;113.60;107.88;;;;;;;20.71;56.23;101365.41;4931381;28;20090;-66
2023/09/29 01:51:40;;;;;;;114.75;109.13;;;;;;;20.69;56.58;101365.72;4975328;28;20030;-67
2023/09/29 01:54:06;;;;;;;113.43;108.03;;;;;;;20.69;56.46;101360.22;4976059;28;20435;-66
2023/09/29 01:56:31;;;;;;;113.72;108.43;;;;;;;20.68;56.34;101358.59;4974147;28;20395;-68
2023/09/29 01:58:58;;;;;;;113.03;107.72;;;;;;;20.67;56.87;101367.13;4975587;28;20027;-66
2023/09/29 02:01:23;;;;;;;114.32;109.22;;;;;;;20.66;56.62;101358.09;4974749;28;20049;-66
2023/09/29 02:03:49;;;;;;;116.53;111.25;;;;;;;20.66;56.67;101355.34;4975035;28;20035;-66
2023/09/29 02:06:15;;;;;;;115.97;110.43;;;;;;;20.66;56.52;101362.75;4975383;28;20042;-66
2023/09/29 02:08:42;;;;;;;116.47;110.80;;;;;;;20.65;56.36;101361.94;4974276;28;20041;-66
2023/09/29 02:11:08;;;;;;;113.57;108.35;;;;;;;20.65;56.73;101364.66;4975228;28;20034;-66
2023/09/29 02:13:34;;;;;;;114.43;108.85;;;;;;;20.65;56.34;101358.38;4974755;28;20042;-67
2023/09/29 02:16:02;;;;;;;113.82;108.43;;;;;;;20.65;56.33;101352.88;4974253;28;20485;-68
2023/09/29 02:18:29;;;;;;;116.53;110.13;;;;;;;20.63;56.71;101347.69;4974475;28;20031;-67
2023/09/29 02:20:55;;;;;;;114.00;108.93;;;;;;;20.64;56.37;101340.28;4974883;28;20384;-68
2023/09/29 02:23:22;;;;;;;116.57;111.38;;;;;;;20.63;56.64;101335.88;4974602;28;20511;-67
2023/09/29 02:25:48;;;;;;;114.65;109.63;;;;;;;20.63;56.29;101336.69;4974171;28;20039;-67
2023/09/29 02:28:14;;;;;;;117.22;111.85;;;;;;;20.62;56.36;101323.28;4972890;28;20058;-69
2023/09/29 02:30:40;;;;;;;112.50;107.40;;;;;;;20.62;56.36;101326.03;4954744;28;20893;-69
2023/09/29 02:33:06;;;;;;;115.43;110.15;;;;;;;20.61;56.54;101324.38;4955473;28;20113;-67
2023/09/29 02:35:32;;;;;;;115.95;110.00;;;;;;;20.61;56.21;101316.16;4955563;28;20471;-67
2023/09/29 02:37:58;;;;;;;114.28;109.10;;;;;;;20.61;56.40;101316.97;4955973;28;20035;-66
2023/09/29 02:40:24;;;;;;;115.22;110.00;;;;;;;20.61;56.69;101316.97;4954841;28;20467;-67
2023/09/29 02:42:50;;;;;;;114.13;108.32;;;;;;;20.60;56.25;101320.00;4955513;28;20395;-68
2023/09/29 02:45:15;;;;;;;113.72;108.63;;;;;;;20.60;56.43;101303.53;4955488;28;20035;-70
2023/09/29 02:47:42;;;;;;;117.20;111.45;;;;;;;20.59;56.78;101305.47;4953806;28;20035;-67
2023/09/29 02:50:09;;;;;;;115.85;110.43;;;;;;;20.58;56.49;101300.28;4955448;28;20042;-68
2023/09/29 02:52:36;;;;;;;114.75;109.65;;;;;;;20.58;56.58;101297.53;4954780;28;20093;-67
2023/09/29 02:55:03;;;;;;;114.25;109.10;;;;;;;20.57;56.39;101291.22;4955382;28;20446;-67
2023/09/29 02:57:29;;;;;;;114.95;109.88;;;;;;;20.57;56.55;101293.97;4953958;28;20126;-67
2023/09/29 02:59:54;;;;;;;115.00;109.70;;;;;;;20.56;56.87;101294.25;4955603;28;20039;-67
2023/09/29 03:02:20;;;;;;;112.90;107.60;;;;;;;20.55;56.41;101296.19;4953951;28;20066;-67
2023/09/29 03:04:47;;;;;;;116.35;111.05;;;;;;;20.55;56.68;101298.94;4954836;28;20059;-69
2023/09/29 03:07:13;;;;;;;115.30;110.20;;;;;;;20.55;56.68;101304.44;4955264;28;20513;-68
2023/09/29 03:09:38;;;;;;;114.05;108.95;;;;;;;20.53;56.45;101296.44;4953545;28;20449;-67
2023/09/29 03:12:04;;;;;;;112.68;107.47;;;;;;;20.52;56.27;101285.78;4954829;28;20059;-69
2023/09/29 03:14:29;;;;;;;113.15;108.00;;;;;;;20.53;56.78;101287.41;4954687;28;20035;-67
2023/09/29 03:16:55;;;;;;;113.50;108.15;;;;;;;20.50;56.46;101277.84;4954909;28;20058;-68
2023/09/29 03:19:20;;;;;;;112.70;107.63;;;;;;;20.50;56.92;101277.03;4955155;28;20114;-69
2023/09/29 03:21:48;;;;;;;113.25;108.05;;;;;;;20.48;56.72;101271.81;4954207;28;20464;-68
2023/09/29 03:24:14;;;;;;;114.72;108.78;;;;;;;20.48;56.53;101252.63;4954922;28;20028;-67
2023/09/29 03:26:39;;;;;;;117.45;112.03;;;;;;;20.49;56.46;101247.97;4954535;28;20063;-68
2023/09/29 03:29:05;;;;;;;113.82;108.63;;;;;;;20.47;56.46;101242.75;4954769;28;20397;-67
2023/09/29 03:31:30;;;;;;;114.47;109.30;;;;;;;20.47;56.60;101250.19;4954197;28;20094;-67
2023/09/29 03:33:56;;;;;;;114.40;109.40;;;;;;;20.45;56.51;101246.91;4954928;28;20031;-66
2023/09/29 03:36:21;;;;;;;112.13;107.22;;;;;;;20.46;56.70;101245.78;4954792;28;20102;-67
2023/09/29 03:38:47;;;;;;;114.82;109.40;;;;;;;20.44;56.51;101243.38;4954639;28;20038;-69
2023/09/29 03:41:13;;;;;;;116.20;111.00;;;;;;;20.44;56.91;101248.84;4959808;28;20031;-67
2023/09/29 03:43:39;;;;;;;111.90;106.88;;;;;;;20.43;56.96;101244.47;4972945;28;20030;-67
2023/09/29 03:46:06;;;;;;;112.03;106.93;;;;;;;20.44;56.71;101237.88;4973259;28;20483;-67
2023/09/29 03:48:31;;;;;;;114.70;109.78;;;;;;;20.44;56.44;101237.88;4973124;28;20089;-69
2023/09/29 03:50:57;;;;;;;112.93;107.95;;;;;;;20.44;57.04;101237.88;4973188;28;20467;-67
2023/09/29 03:53:25;;;;;;;111.28;105.97;;;;;;;20.45;56.88;101235.94;4973526;28;20034;-68
2023/09/29 03:55:52;;;;;;;110.47;105.60;;;;;;;20.45;56.77;101227.72;4954199;28;20031;-68
2023/09/29 03:58:18;;;;;;;110.90;106.03;;;;;;;20.44;57.05;101213.19;4954325;28;20038;-68
2023/09/29 04:00:43;;;;;;;111.50;106.60;;;;;;;20.44;57.10;101201.41;4953850;28;20037;-67
2023/09/29 04:03:09;;;;;;;112.78;107.88;;;;;;;20.43;57.10;101210.72;4954423;28;20047;-67
2023/09/29 04:05:34;;;;;;;111.85;106.70;;;;;;;20.43;56.98;101219.75;4953407;28;20496;-67
2023/09/29 04:08:01;;;;;;;109.13;104.38;;;;;;;20.43;56.53;101228.00;4954255;28;20369;-67
2023/09/29 04:10:27;;;;;;;108.32;103.57;;;;;;;20.44;56.71;101228.84;4954155;28;20422;-67
2023/09/29 04:12:53;;;;;;;111.07;106.07;;;;;;;20.44;57.08;101217.84;4953510;28;20031;-67
2023/09/29 04:15:19;;;;;;;111.35;106.28;;;;;;;20.43;56.70;101210.72;4954158;28;20031;-67
2023/09/29 04:17:44;;;;;;;112.68;107.57;;;;;;;20.41;56.59;101202.81;4953801;28;20062;-67
2023/09/29 04:20:10;;;;;;;108.40;103.70;;;;;;;20.40;57.15;101203.09;4954115;28;20035;-67
2023/09/29 04:22:36;;;;;;;106.85;102.05;;;;;;;20.40;57.21;101200.34;4953755;28;20395;-69
2023/09/29 04:25:02;;;;;;;111.00;105.93;;;;;;;20.39;57.19;101205.03;4954144;28;20040;-67
2023/09/29 04:27:27;;;;;;;110.75;105.85;;;;;;;20.39;57.13;101206.97;4954135;28;20037;-67
2023/09/29 04:29:53;;;;;;;110.15;105.25;;;;;;;20.40;57.28;101209.38;4952141;28;20118;-69
2023/09/29 04:32:19;;;;;;;108.63;103.82;;;;;;;20.38;56.80;101199.81;4954065;28;20067;-66
2023/09/29 04:34:45;;;;;;;109.85;105.03;;;;;;;20.36;57.08;101204.78;4953287;28;20032;-68
2023/09/29 04:37:11;;;;;;;109.90;105.05;;;;;;;20.36;57.42;101205.63;4953853;28;20381;-66
2023/09/29 04:39:36;;;;;;;108.80;103.63;;;;;;;20.36;57.17;101204.78;4953545;28;20504;-67
2023/09/29 04:42:04;;;;;;;108.18;103.43;;;;;;;20.37;57.51;101210.00;4953626;28;20480;-66
2023/09/29 04:44:30;;;;;;;106.70;102.13;;;;;;;20.34;57.19;101215.28;4953456;28;20439;-68
2023/09/29 04:46:56;;;;;;;111.15;106.25;;;;;;;20.33;57.63;101217.16;4953230;28;20048;-67
2023/09/29 04:49:21;;;;;;;108.82;104.00;;;;;;;20.31;57.21;101212.00;4953829;28;20039;-69
2023/09/29 04:51:46;;;;;;;111.30;106.47;;;;;;;20.32;57.28;101215.56;4953670;28;20472;-67
2023/09/29 04:54:12;;;;;;;109.65;104.70;;;;;;;20.32;57.23;101205.38;4953785;28;20063;-67
2023/09/29 04:56:38;;;;;;;108.68;103.97;;;;;;;20.31;57.33;101209.25;4956601;28;20028;-67
2023/09/29 04:59:04;;;;;;;111.20;106.38;;;;;;;20.31;57.12;101201.03;4957300;28;20105;-66
2023/09/29 05:01:30;;;;;;;108.15;103.47;;;;;;;20.32;57.33;101188.13;4957375;28;20476;-69
2023/09/29 05:03:56;;;;;;;111.30;105.85;;;;;;;20.32;57.45;101197.16;4956680;28;20035;-68
2023/09/29 05:06:23;;;;;;;109.35;104.50;;;;;;;20.31;57.46;101190.06;4957959;28;20468;-68
2023/09/29 05:08:49;;;;;;;109.05;104.18;;;;;;;20.30;57.88;101182.91;4956746;28;20441;-67
2023/09/29 05:11:22;;;;;;;110.47;105.28;;;;;;;20.30;57.39;101168.41;4957332;28;20035;-66
2023/09/29 05:13:49;;;;;;;109.63;104.75;;;;;;;20.30;57.45;101171.94;4956712;28;20381;-67
2023/09/29 05:16:15;;;;;;;108.65;103.88;;;;;;;20.29;57.50;101172.25;4957125;28;20034;-67
2023/09/29 05:18:41;;;;;;;106.80;102.00;;;;;;;20.30;57.93;101169.19;4957132;28;20383;-68
2023/09/29 05:21:06;;;;;;;108.03;102.95;;;;;;;20.30;57.45;101169.19;4956705;28;20023;-67
2023/09/29 05:23:32;;;;;;;107.25;102.32;;;;;;;20.31;57.88;101173.59;4957060;28;20031;-68
2023/09/29 05:26:02;;;;;;;108.47;103.38;;;;;;;20.30;57.86;101166.47;4956440;28;20035;-67
2023/09/29 05:28:28;;;;;;;107.10;102.38;;;;;;;20.32;57.61;101172.47;4956960;28;20063;-66
2023/09/29 05:30:54;;;;;;;107.07;101.88;;;;;;;20.32;57.60;101183.44;4956627;28;20066;-68
2023/09/29 05:33:20;;;;;;;107.22;102.32;;;;;;;20.32;57.94;101180.69;4956733;28;20035;-67
2023/09/29 05:35:46;;;;;;;107.05;101.78;;;;;;;20.35;57.62;101178.47;4956893;28;20094;-75
2023/09/29 05:38:12;;;;;;;104.70;100.18;;;;;;;20.34;57.73;101180.41;4957239;28;20544;-68
2023/09/29 05:40:38;;;;;;;108.15;103.32;;;;;;;20.35;57.72;101179.28;4956826;28;20397;-68
2023/09/29 05:43:04;;;;;;;109.63;104.63;;;;;;;20.35;58.04;101192.19;4956196;28;20044;-69
2023/09/29 05:45:30;;;;;;;109.43;104.45;;;;;;;20.35;57.89;101187.53;4956673;28;20126;-69
2023/09/29 05:47:56;;;;;;;107.90;103.20;;;;;;;20.36;57.78;101193.81;4955920;28;20119;-67
2023/09/29 05:50:21;;;;;;;112.07;106.97;;;;;;;20.36;57.71;101185.59;4957163;28;20082;-66
2023/09/29 05:52:47;;;;;;;106.60;101.93;;;;;;;20.36;58.22;101185.59;4956991;28;20035;-69
2023/09/29 05:55:13;;;;;;;111.05;106.15;;;;;;;20.35;58.25;101189.44;4956441;28;20027;-68
2023/09/29 05:57:39;;;;;;;109.68;104.90;;;;;;;20.36;58.01;101185.59;4956327;28;20147;-67
2023/09/29 06:00:05;;;;;;;108.40;103.32;;;;;;;20.37;57.95;101187.22;4965187;28;20047;-68
2023/09/29 06:02:31;;;;;;;107.57;102.60;;;;;;;20.37;58.23;101185.28;4975243;28;20038;-67
2023/09/29 06:04:56;;;;;;;108.95;104.05;;;;;;;20.39;57.89;101188.56;4973799;28;20053;-67
2023/09/29 06:07:22;;;;;;;108.00;102.90;;;;;;;20.38;58.54;101189.66;4974997;28;20046;-72
2023/09/29 06:09:48;;;;;;;108.03;103.03;;;;;;;20.39;58.32;101190.50;4956444;28;20122;-68
2023/09/29 06:12:13;;;;;;;107.13;102.47;;;;;;;20.40;58.04;101184.69;4955742;28;20043;-68
2023/09/29 06:14:38;;;;;;;107.30;102.38;;;;;;;20.40;58.06;101176.47;4956158;28;20023;-67
2023/09/29 06:17:04;;;;;;;106.00;101.22;;;;;;;20.40;58.40;101192.94;4955793;28;20430;-69
2023/09/29 06:19:29;;;;;;;108.43;103.40;;;;;;;20.40;58.02;101195.66;4956140;28;20040;-67
2023/09/29 06:21:55;;;;;;;108.13;103.00;;;;;;;20.41;58.62;101211.03;4955549;28;20038;-68
2023/09/29 06:24:21;;;;;;;106.00;101.45;;;;;;;20.41;58.09;101205.56;4955016;28;20047;-70
2023/09/29 06:26:46;;;;;;;107.18;102.05;;;;;;;20.41;58.15;101200.06;4956228;28;20394;-68
2023/09/29 06:29:12;;;;;;;107.93;103.13;;;;;;;20.41;58.11;101201.97;4954539;28;20471;-69
2023/09/29 06:31:38;;;;;;;106.75;101.80;;;;;;;20.41;58.13;101197.31;4956037;28;20046;-68
2023/09/29 06:34:04;;;;;;;109.75;105.00;;;;;;;20.41;58.64;101208.28;4955915;28;20476;-67
2023/09/29 06:36:29;;;;;;;109.40;104.38;;;;;;;20.41;58.28;101210.19;4956211;28;20027;-68
2023/09/29 06:38:56;;;;;;;108.18;103.28;;;;;;;20.42;58.26;101206.34;4955795;28;20034;-68
2023/09/29 06:41:23;;;;;;;111.82;106.53;;;;;;;20.41;58.75;101200.06;4955223;28;20039;-69
2023/09/29 06:43:49;;;;;;;107.93;102.82;;;;;;;20.42;58.39;101211.84;4955526;28;20373;-68
2023/09/29 06:46:14;;;;;;;108.15;102.95;;;;;;;20.44;58.25;101212.38;4954097;28;20952;-68
2023/09/29 06:48:42;;;;;;;108.00;103.20;;;;;;;20.44;58.39;101215.13;4956008;28;20066;-67
2023/09/29 06:51:07;;;;;;;109.50;104.50;;;;;;;20.45;58.21;101214.81;4955101;28;20039;-68
2023/09/29 06:53:33;;;;;;;108.25;103.53;;;;;;;20.47;58.46;101217.25;4955166;28;20498;-67
2023/09/29 06:55:58;;;;;;;108.40;103.63;;;;;;;20.47;58.99;101212.56;4955038;28;20028;-69
2023/09/29 06:58:24;;;;;;;110.82;105.60;;;;;;;20.49;58.36;101215.03;4955728;28;20118;-67
2023/09/29 07:00:51;;;;;;;108.93;104.05;;;;;;;20.49;58.95;101210.34;4955464;28;20075;-67
2023/09/29 07:03:17;;;;;;;107.60;102.80;;;;;;;20.49;58.96;101204.88;4953824;28;20127;-68
2023/09/29 07:05:43;;;;;;;108.75;103.90;;;;;;;20.49;58.61;101202.13;4955551;28;20142;-68
2023/09/29 07:08:08;;;;;;;113.25;108.15;;;;;;;20.50;58.80;101203.75;4955114;28;20450;-67
2023/09/29 07:10:33;;;;;;;108.75;103.93;;;;;;;20.51;58.97;101218.28;4955126;28;20494;-69
2023/09/29 07:12:59;;;;;;;106.80;102.15;;;;;;;20.51;58.81;101210.03;4954209;29;20035;-70
2023/09/29 07:15:25;;;;;;;107.82;103.20;;;;;;;20.51;59.31;101221.03;4953500;28;20106;-70
2023/09/29 07:17:50;;;;;;;107.78;103.07;;;;;;;20.52;59.16;101219.91;4954276;28;20031;-67
2023/09/29 07:20:16;;;;;;;109.45;104.45;;;;;;;20.52;59.04;101228.97;4953486;28;20460;-68
2023/09/29 07:22:41;;;;;;;106.97;102.28;;;;;;;20.53;59.18;101230.59;4955111;28;20459;-68
2023/09/29 07:25:07;;;;;;;111.57;106.47;;;;;;;20.54;59.36;101231.41;4954233;28;20041;-70
2023/09/29 07:27:32;;;;;;;108.25;103.60;;;;;;;20.55;59.08;101227.59;4955181;28;20054;-68
2023/09/29 07:29:58;;;;;;;109.47;104.68;;;;;;;20.57;59.37;101238.28;4954482;28;20129;-69
2023/09/29 07:32:24;;;;;;;110.65;104.88;;;;;;;20.57;59.50;101241.03;4954622;28;20515;-68
2023/09/29 07:34:50;;;;;;;105.38;100.70;;;;;;;20.60;59.53;101240.41;4956614;28;20086;-69
2023/09/29 07:37:15;;;;;;;108.28;103.40;;;;;;;20.61;59.62;101242.84;4973162;28;20034;-67
2023/09/29 07:39:41;;;;;;;108.07;102.57;;;;;;;20.62;59.36;101238.19;4969171;28;20125;-68
2023/09/29 07:42:06;;;;;;;107.45;102.63;;;;;;;20.63;59.71;101239.81;4953921;28;20033;-69
2023/09/29 07:44:32;;;;;;;108.47;103.60;;;;;;;20.63;59.64;101243.38;4954705;28;20039;-68
2023/09/29 07:46:57;;;;;;;109.38;104.57;;;;;;;20.64;59.50;101238.72;4954534;28;20073;-68
2023/09/29 07:49:24;;;;;;;111.07;106.07;;;;;;;20.63;59.19;101243.38;4954351;28;20118;-67
2023/09/29 07:51:50;;;;;;;108.95;103.95;;;;;;;20.65;59.53;101243.91;4954468;28;20113;-66
2023/09/29 07:54:16;;;;;;;108.63;103.38;;;;;;;20.65;59.94;101249.38;4953920;28;20043;-70
2023/09/29 07:56:47;;;;;;;108.03;103.22;;;;;;;20.66;59.83;101248.28;4953489;28;20039;-68
2023/09/29 07:59:14;;;;;;;109.88;104.80;;;;;;;20.68;59.70;101257.00;4954266;28;20476;-68
2023/09/29 08:01:42;;;;;;;108.10;103.30;;;;;;;20.71;59.72;101258.34;4954277;28;20476;-67
2023/09/29 08:04:08;;;;;;;109.78;104.97;;;;;;;20.72;59.37;101260.00;4954564;28;20039;-68
2023/09/29 08:06:33;;;;;;;106.07;101.40;;;;;;;20.73;59.64;101270.66;4954034;28;20035;-70
2023/09/29 08:09:00;;;;;;;103.90;98.93;;;;;;;20.75;60.00;101262.94;4953933;28;20475;-70
2023/09/29 08:11:25;;;;;;;108.35;103.38;;;;;;;20.78;60.11;101277.19;4953861;28;20125;-69
2023/09/29 08:13:53;;;;;;;109.10;104.28;;;;;;;20.78;59.60;101269.78;4954357;28;20127;-68
2023/09/29 08:16:20;;;;;;;108.25;103.35;;;;;;;20.82;59.71;101286.47;4953907;28;20039;-68
2023/09/29 08:18:45;;;;;;;111.35;106.35;;;;;;;20.82;59.74;101283.72;4954047;28;20039;-67
2023/09/29 08:21:11;;;;;;;113.20;108.25;;;;;;;20.81;59.91;101291.13;4953545;28;20546;-72
2023/09/29 08:23:37;;;;;;;112.43;107.30;;;;;;;20.85;60.25;101291.38;4953863;28;20058;-70
2023/09/29 08:26:03;;;;;;;108.22;103.60;;;;;;;20.85;60.04;101283.13;4952954;28;20039;-68
2023/09/29 08:28:28;;;;;;;112.30;107.20;;;;;;;20.88;59.80;101285.28;4953770;28;20391;-68
2023/09/29 08:30:53;;;;;;;109.30;104.40;;;;;;;20.90;59.85;101294.84;4954117;28;20118;-68
2023/09/29 08:33:19;;;;;;;113.32;108.22;;;;;;;20.90;59.98;101300.34;4953485;28;20090;-70
2023/09/29 08:35:44;;;;;;;112.57;107.57;;;;;;;20.91;59.81;101301.94;4954044;28;20376;-71
2023/09/29 08:38:10;;;;;;;111.75;106.30;;;;;;;20.93;60.55;101305.22;4953752;28;20107;-68
2023/09/29 08:40:39;;;;;;;113.43;108.22;;;;;;;20.95;60.28;101300.25;4970762;28;20046;-68
2023/09/29 08:43:06;;;;;;;108.82;104.03;;;;;;;20.96;60.31;101301.91;4973381;28;20031;-68
2023/09/29 08:45:32;;;;;;;116.82;111.68;;;;;;;20.98;60.21;101309.81;4968193;28;20027;-67
2023/09/29 08:47:59;;;;;;;113.72;108.90;;;;;;;21.00;60.35;101321.34;4953465;28;20062;-72
2023/09/29 08:50:25;;;;;;;114.88;109.57;;;;;;;21.01;59.83;101320.22;4953346;28;20031;-67
2023/09/29 08:52:51;;;;;;;114.32;109.15;;;;;;;21.05;59.85;101325.94;4953566;28;20035;-68
2023/09/29 08:55:17;;;;;;;114.13;107.85;;;;;;;21.06;59.99;101327.56;4970525;28;20051;-68
2023/09/29 08:57:43;;;;;;;112.60;107.63;;;;;;;21.07;59.88;101327.25;4972705;28;20487;-69
2023/09/29 09:00:13;;;;;;;114.70;109.57;;;;;;;21.09;59.77;101333.28;4972689;28;20030;-70
2023/09/29 09:02:45;;;;;;;112.88;107.78;;;;;;;21.10;60.12;101328.59;4971598;28;20062;-69
2023/09/29 09:05:12;;;;;;;114.30;109.10;;;;;;;21.10;60.01;101337.66;4971513;28;20139;-68
2023/09/29 09:07:41;;;;;;;115.22;109.80;;;;;;;21.13;60.05;101336.22;4972171;28;20486;-69
2023/09/29 09:10:09;;;;;;;115.05;109.85;;;;;;;21.15;59.80;101336.75;4972778;28;20114;-68
2023/09/29 09:12:35;;;;;;;115.63;110.07;;;;;;;21.18;60.14;101341.66;4971847;28;20043;-68
2023/09/29 09:15:05;;;;;;;115.07;109.80;;;;;;;21.22;60.38;101339.94;4971592;28;20035;-71
2023/09/29 09:17:32;;;;;;;115.60;110.22;;;;;;;21.25;60.63;101344.03;4971318;28;20053;-69
2023/09/29 09:19:57;;;;;;;115.40;110.32;;;;;;;21.28;60.68;101343.41;4972176;28;20104;-69
2023/09/29 09:22:26;;;;;;;114.80;109.78;;;;;;;21.29;60.67;101345.03;4971885;28;20472;-69
2023/09/29 09:24:58;;;;;;;113.05;107.40;;;;;;;21.31;60.52;101346.38;4972331;28;20042;-68
2023/09/29 09:27:24;;;;;;;117.22;111.82;;;;;;;21.32;60.40;101344.44;4971490;28;20057;-67
2023/09/29 09:29:50;;;;;;;113.00;107.93;;;;;;;21.33;60.75;101344.13;4971023;28;20125;-71
2023/09/29 09:32:28;;;;;;;110.50;105.65;;;;;;;21.34;60.50;101343.03;4972169;28;20133;-68
2023/09/29 09:34:54;;;;;;;114.87;109.67;;;;;;;21.35;60.84;101346.59;4972362;28;20525;-69
2023/09/29 09:37:29;;;;;;;113.13;108.03;;;;;;;21.33;60.41;101352.38;4971651;28;20278;-68
2023/09/29 09:39:55;;;;;;;114.05;108.85;;;;;;;21.35;60.80;101346.59;4971327;28;20118;-69
2023/09/29 09:42:24;;;;;;;110.82;105.93;;;;;;;21.36;60.68;101348.22;4976160;28;20041;-67
2023/09/29 09:44:50;;;;;;;116.03;110.82;;;;;;;21.36;60.56;101353.72;4975503;28;20050;-67
2023/09/29 09:47:16;;;;;;;113.75;108.40;;;;;;;21.38;60.27;101365.22;4975560;28;20080;-69
2023/09/29 09:49:47;;;;;;;116.22;110.93;;;;;;;21.39;60.66;101367.72;4975219;28;20041;-69
2023/09/29 09:52:29;;;;;;;116.13;110.93;;;;;;;21.42;60.35;101365.47;4975690;28;20035;-66
2023/09/29 09:55:04;;;;;;;118.90;113.80;;;;;;;21.44;60.22;101375.03;4975586;28;20028;-68
2023/09/29 09:57:35;;;;;;;116.03;111.00;;;;;;;21.45;60.40;101364.88;4975690;28;20019;-68
2023/09/29 10:00:07;;;;;;;113.15;108.20;;;;;;;21.47;60.68;101381.84;4975661;28;20114;-67
2023/09/29 10:02:39;;;;;;;117.65;112.22;;;;;;;21.47;60.65;101376.38;4975101;28;20077;-68
2023/09/29 10:05:12;;;;;;;115.40;110.20;;;;;;;21.50;60.46;101379.34;4975501;28;20142;-67
2023/09/29 10:07:47;;;;;;;118.80;113.25;;;;;;;21.53;60.09;101389.72;4974565;28;20034;-68
2023/09/29 10:10:31;;;;;;;115.75;110.28;;;;;;;21.54;60.65;101383.09;4975327;28;20524;-68
2023/09/29 10:12:57;;;;;;;115.30;110.18;;;;;;;21.54;60.26;101388.59;4975160;28;20039;-68
2023/09/29 10:15:26;;;;;;;116.72;111.50;;;;;;;21.56;60.08;101389.13;4973993;28;20043;-69
2023/09/29 10:17:53;;;;;;;117.63;112.50;;;;;;;21.59;60.37;101387.69;4975012;28;20046;-67
2023/09/29 10:20:23;;;;;;;120.05;114.28;;;;;;;21.59;60.07;101385.75;4974245;28;20382;-67
2023/09/29 10:22:55;;;;;;;118.07;112.53;;;;;;;21.61;60.43;101388.22;4974806;28;20038;-67
2023/09/29 10:25:21;;;;;;;118.07;112.57;;;;;;;21.64;60.45;101386.81;4974173;28;20039;-67
2023/09/29 10:27:50;;;;;;;122.07;116.47;;;;;;;21.64;60.01;101400.56;4973384;28;20027;-67
2023/09/29 10:30:16;;;;;;;120.45;115.25;;;;;;;21.65;60.40;101405.75;4975285;28;20046;-67
2023/09/29 10:32:43;;;;;;;117.50;112.15;;;;;;;21.67;60.16;101408.19;4973711;28;20046;-67
2023/09/29 10:35:18;;;;;;;125.55;119.85;;;;;;;21.71;60.63;101417.47;4975015;28;20038;-68
2023/09/29 10:37:45;;;;;;;120.00;114.70;;;;;;;21.74;59.80;101414.13;4955713;28;20063;-67
2023/09/29 10:40:34;;;;;;;122.80;117.38;;;;;;;21.75;60.44;101424.03;4955456;28;20059;-67
2023/09/29 10:43:03;;;;;;;120.82;115.43;;;;;;;21.76;60.04;101420.13;4955540;28;20036;-67
2023/09/29 10:45:40;;;;;;;119.93;114.70;;;;;;;21.79;60.15;101414.03;4973442;28;20039;-67
2023/09/29 10:48:10;;;;;;;124.73;119.23;;;;;;;21.80;60.13;101419.25;4973827;28;20030;-67
2023/09/29 10:50:43;;;;;;;122.60;117.05;;;;;;;21.81;60.29;101418.09;4973978;28;20110;-67
2023/09/29 10:53:09;;;;;;;122.78;117.18;;;;;;;21.82;60.22;101414.25;4973031;28;20039;-68
2023/09/29 10:55:41;;;;;;;122.32;116.72;;;;;;;21.85;60.39;101420.25;4969511;28;20360;-69